createdAt,value
2022-11-24T00:02:07.909Z,100402.94
2022-11-24T00:04:36.806Z,100388.38
2022-11-24T00:07:04.730Z,100400.44
2022-11-24T00:09:32.229Z,100401.25
2022-11-24T00:12:01.294Z,100392.69
2022-11-24T00:14:28.786Z,100401.31
2022-11-24T00:16:56.531Z,100404.78
2022-11-24T00:19:24.085Z,100406.53
2022-11-24T00:21:52.896Z,100406.53
2022-11-24T00:24:20.388Z,100406.53
2022-11-24T00:26:47.876Z,100405.69
2022-11-24T00:29:15.476Z,100409.06
2022-11-24T00:31:43.963Z,100402.22
2022-11-24T00:34:14.204Z,100406.53
2022-11-24T00:36:42.985Z,100404.00
2022-11-24T00:39:14.126Z,100398.84
2022-11-24T00:41:42.600Z,100406.53
2022-11-24T00:44:10.487Z,100416.78
2022-11-24T00:46:38.035Z,100405.59
2022-11-24T00:49:06.376Z,100403.00
2022-11-24T00:51:33.896Z,100402.16
2022-11-24T00:54:02.312Z,100399.63
2022-11-24T00:56:31.118Z,100409.94
2022-11-24T00:58:58.960Z,100411.69
2022-11-24T01:01:28.405Z,100423.69
2022-11-24T01:03:56.565Z,100416.72
2022-11-24T01:06:26.514Z,100413.31
2022-11-24T01:08:54.608Z,100411.63
2022-11-24T01:11:25.023Z,100396.28
2022-11-24T01:13:55.957Z,100400.59
2022-11-24T01:16:25.662Z,100397.97
2022-11-24T01:18:54.960Z,100401.50
2022-11-24T01:21:23.228Z,100400.59
2022-11-24T01:23:51.248Z,100416.06
2022-11-24T01:26:21.125Z,100412.63
2022-11-24T01:28:53.206Z,100422.06
2022-11-24T01:31:22.224Z,100410.91
2022-11-24T01:33:49.799Z,100410.06
2022-11-24T01:38:45.021Z,100428.91
2022-11-24T01:41:14.269Z,100425.41
2022-11-24T01:43:42.563Z,100428.03
2022-11-24T01:46:19.485Z,100432.28
2022-11-24T01:48:52.686Z,100427.91
2022-11-24T01:51:24.768Z,100424.44
2022-11-24T01:53:58.354Z,100417.56
2022-11-24T01:56:26.566Z,100413.38
2022-11-24T01:58:58.239Z,100409.09
2022-11-24T02:01:26.368Z,100418.66
2022-11-24T02:03:56.382Z,100406.66
2022-11-24T02:06:28.371Z,100417.88
2022-11-24T02:09:00.950Z,100421.41
2022-11-24T02:11:31.507Z,100426.44
2022-11-24T02:13:59.456Z,100426.44
2022-11-24T02:16:27.687Z,100453.78
2022-11-24T02:18:57.070Z,100452.91
2022-11-24T02:21:24.724Z,100449.63
2022-11-24T02:24:01.530Z,100460.81
2022-11-24T02:26:41.289Z,100453.13
2022-11-24T02:29:09.848Z,100460.03
2022-11-24T02:31:37.575Z,100457.47
2022-11-24T02:34:05.165Z,100445.41
2022-11-24T02:36:32.856Z,100460.09
2022-11-24T02:39:00.395Z,100453.13
2022-11-24T02:41:29.365Z,100444.47
2022-11-24T02:44:00.906Z,100457.34
2022-11-24T02:46:28.417Z,100465.91
2022-11-24T02:48:56.160Z,100458.19
2022-11-24T02:51:23.768Z,100456.44
2022-11-24T02:53:51.247Z,100463.28
2022-11-24T02:56:18.758Z,100457.25
2022-11-24T02:58:46.354Z,100468.38
2022-11-24T03:01:15.245Z,100469.31
2022-11-24T03:03:42.820Z,100465.91
2022-11-24T03:06:10.245Z,100468.53
2022-11-24T03:08:37.720Z,100453.09
2022-11-24T03:11:05.475Z,100460.88
2022-11-24T03:13:32.917Z,100460.81
2022-11-24T03:16:00.437Z,100453.94
2022-11-24T03:18:29.262Z,100452.38
2022-11-24T03:21:00.248Z,100449.72
2022-11-24T03:23:27.706Z,100453.13
2022-11-24T03:25:55.544Z,100441.22
2022-11-24T03:28:23.098Z,100438.78
2022-11-24T03:30:50.996Z,100436.31
2022-11-24T03:33:18.536Z,100456.97
2022-11-24T03:35:47.319Z,100474.22
2022-11-24T03:38:14.799Z,100460.38
2022-11-24T03:40:42.342Z,100467.22
2022-11-24T03:43:09.832Z,100483.50
2022-11-24T03:45:45.973Z,100470.69
2022-11-24T03:48:14.373Z,100478.47
2022-11-24T03:50:42.033Z,100487.06
2022-11-24T03:53:11.093Z,100475.94
2022-11-24T03:55:38.642Z,100482.00
2022-11-24T03:58:06.167Z,100487.16
2022-11-24T04:00:33.639Z,100479.44
2022-11-24T04:03:01.240Z,100486.19
2022-11-24T04:05:28.847Z,100483.63
2022-11-24T04:07:57.245Z,100497.34
2022-11-24T04:10:26.157Z,100494.72
2022-11-24T04:12:52.690Z,100501.53
2022-11-24T04:15:20.606Z,100495.56
2022-11-24T04:17:49.368Z,100506.69
2022-11-24T04:20:17.922Z,100499.81
2022-11-24T04:22:45.388Z,100498.06
2022-11-24T04:25:13.422Z,100495.56
2022-11-24T04:27:42.334Z,100510.19
2022-11-24T04:30:10.951Z,100511.06
2022-11-24T04:32:38.496Z,100499.94
2022-11-24T04:35:06.665Z,100499.06
2022-11-24T04:37:35.845Z,100505.97
2022-11-24T04:40:03.685Z,100508.50
2022-11-24T04:42:31.213Z,100500.00
2022-11-24T04:45:00.172Z,100510.41
2022-11-24T04:47:28.386Z,100507.88
2022-11-24T04:49:56.029Z,100512.19
2022-11-24T04:52:25.517Z,100507.03
2022-11-24T04:54:53.656Z,100511.34
2022-11-24T04:57:23.188Z,100513.09
2022-11-24T04:59:51.422Z,100522.50
2022-11-24T05:02:21.187Z,100533.63
2022-11-24T05:04:49.144Z,100528.53
2022-11-24T05:07:18.996Z,100538.88
2022-11-24T05:10:04.694Z,100550.13
2022-11-24T05:12:32.285Z,100554.50
2022-11-24T05:14:59.852Z,100555.53
2022-11-24T05:17:31.583Z,100560.78
2022-11-24T05:19:59.090Z,100563.47
2022-11-24T05:22:26.941Z,100564.34
2022-11-24T05:24:54.520Z,100575.50
2022-11-24T05:27:22.204Z,100566.84
2022-11-24T05:29:49.794Z,100573.69
2022-11-24T05:32:17.517Z,100572.81
2022-11-24T05:34:46.440Z,100579.63
2022-11-24T05:37:14.164Z,100577.97
2022-11-24T05:39:41.639Z,100575.44
2022-11-24T05:42:23.756Z,100578.03
2022-11-24T05:44:51.439Z,100580.53
2022-11-24T05:47:19.272Z,100572.81
2022-11-24T05:49:48.437Z,100579.69
2022-11-24T05:52:16.754Z,100584.00
2022-11-24T05:54:44.614Z,100590.91
2022-11-24T05:57:13.128Z,100590.09
2022-11-24T05:59:40.562Z,100588.38
2022-11-24T06:02:08.366Z,100589.16
2022-11-24T06:04:36.205Z,100596.88
2022-11-24T06:07:08.251Z,100602.84
2022-11-24T06:09:37.355Z,100599.47
2022-11-24T06:12:05.268Z,100595.13
2022-11-24T06:14:33.036Z,100603.78
2022-11-24T06:17:01.097Z,100608.97
2022-11-24T06:19:28.661Z,100616.81
2022-11-24T06:21:56.323Z,100617.63
2022-11-24T06:24:25.232Z,100621.94
2022-11-24T06:26:52.792Z,100625.31
2022-11-24T06:29:20.253Z,100619.28
2022-11-24T06:31:47.723Z,100626.09
2022-11-24T06:34:15.275Z,100632.88
2022-11-24T06:36:42.826Z,100637.97
2022-11-24T06:39:11.045Z,100630.16
2022-11-24T06:41:39.896Z,100631.94
2022-11-24T06:44:07.426Z,100638.72
2022-11-24T06:46:35.021Z,100637.94
2022-11-24T06:49:02.935Z,100641.38
2022-11-24T06:51:30.436Z,100637.97
2022-11-24T06:53:58.015Z,100630.31
2022-11-24T06:56:25.577Z,100641.50
2022-11-24T06:58:54.748Z,100643.28
2022-11-24T07:01:24.116Z,100657.00
2022-11-24T07:04:42.510Z,100658.84
2022-11-24T07:08:14.670Z,100646.91
2022-11-24T07:11:54.614Z,100659.84
2022-11-24T07:14:55.966Z,100661.50
2022-11-24T07:17:38.075Z,100673.44
2022-11-24T07:20:31.339Z,100674.34
2022-11-24T07:23:03.008Z,100676.06
2022-11-24T07:25:35.275Z,100683.91
2022-11-24T07:28:23.220Z,100674.47
2022-11-24T07:31:29.121Z,100676.16
2022-11-24T07:34:27.401Z,100678.69
2022-11-24T07:43:20.873Z,100685.38
2022-11-24T07:45:56.507Z,100685.31
2022-11-24T08:05:02.834Z,100701.22
2022-11-24T08:07:49.840Z,100702.81
2022-11-24T08:13:14.617Z,100699.16
2022-11-24T08:15:57.545Z,100697.44
2022-11-24T08:24:53.847Z,100711.97
2022-11-24T08:31:17.584Z,100716.97
2022-11-24T08:34:18.362Z,100714.38
2022-11-24T08:37:29.289Z,100697.97
2022-11-24T08:45:53.217Z,100721.06
2022-11-24T08:51:23.853Z,100723.47
2022-11-24T09:02:55.263Z,100718.19
2022-11-24T09:08:30.012Z,100732.69
2022-11-24T09:11:03.603Z,100723.97
2022-11-24T09:13:35.599Z,100729.06
2022-11-24T09:16:08.244Z,100723.84
2022-11-24T09:18:37.269Z,100721.34
2022-11-24T09:21:10.352Z,100729.06
2022-11-24T09:23:40.206Z,100726.50
2022-11-24T09:28:56.710Z,100739.16
2022-11-24T09:34:20.580Z,100749.19
2022-11-24T09:39:51.806Z,100755.09
2022-11-24T09:46:04.934Z,100756.69
2022-11-24T09:48:53.143Z,100750.63
2022-11-24T09:51:26.187Z,100763.34
2022-11-24T09:54:04.908Z,100755.50
2022-11-24T09:59:46.945Z,100762.97
2022-11-24T10:02:36.931Z,100773.13
2022-11-24T10:05:23.958Z,100770.38
2022-11-24T10:08:16.366Z,100765.09
2022-11-24T10:10:58.652Z,100770.81
2022-11-24T10:14:12.169Z,100771.50
2022-11-24T10:17:09.590Z,100775.66
2022-11-24T10:20:43.657Z,100780.66
2022-11-24T10:26:21.903Z,100783.66
2022-11-24T10:28:58.865Z,100793.72
2022-11-24T10:31:54.829Z,100788.44
2022-11-24T10:34:47.448Z,100788.22
2022-11-24T10:38:02.160Z,100784.56
2022-11-24T10:41:18.153Z,100786.09
2022-11-24T10:43:55.054Z,100778.06
2022-11-24T10:46:55.669Z,100778.72
2022-11-24T10:50:02.854Z,100778.34
2022-11-24T10:56:22.528Z,100775.66
2022-11-24T10:59:23.591Z,100781.13
2022-11-24T11:02:19.288Z,100777.31
2022-11-24T11:05:31.778Z,100778.00
2022-11-24T11:08:37.010Z,100771.72
2022-11-24T11:11:34.474Z,100774.81
2022-11-24T11:14:11.204Z,100776.25
2022-11-24T11:16:56.967Z,100780.28
2022-11-24T11:22:44.204Z,100782.81
2022-11-24T11:25:26.248Z,100796.28
2022-11-24T11:31:38.762Z,100794.13
2022-11-24T11:34:25.241Z,100789.78
2022-11-24T11:37:04.161Z,100783.72
2022-11-24T11:39:37.832Z,100792.44
2022-11-24T11:42:53.639Z,100782.19
2022-11-24T11:48:42.407Z,100782.94
2022-11-24T11:51:39.511Z,100774.25
2022-11-24T11:54:15.844Z,100775.81
2022-11-24T11:56:48.468Z,100790.34
2022-11-24T11:59:47.451Z,100787.81
2022-11-24T12:02:41.402Z,100780.06
2022-11-24T12:05:24.341Z,100779.94
2022-11-24T12:08:14.548Z,100781.81
2022-11-24T12:10:53.213Z,100791.34
2022-11-24T12:13:37.246Z,100791.41
2022-11-24T12:16:36.769Z,100786.16
2022-11-24T12:19:29.729Z,100787.81
2022-11-24T12:22:22.510Z,100781.69
2022-11-24T12:25:06.078Z,100785.03
2022-11-24T12:27:58.288Z,100791.09
2022-11-24T12:30:50.387Z,100781.50
2022-11-24T12:34:05.413Z,100781.34
2022-11-24T12:37:01.754Z,100779.47
2022-11-24T12:39:56.706Z,100788.75
2022-11-24T12:42:37.172Z,100792.78
2022-11-24T12:45:15.217Z,100794.03
2022-11-24T12:48:20.514Z,100790.03
2022-11-24T12:50:49.946Z,100791.28
2022-11-24T12:53:25.667Z,100798.78
2022-11-24T12:55:58.916Z,100798.84
2022-11-24T12:58:35.601Z,100791.94
2022-11-24T13:08:33.134Z,100815.25
2022-11-24T13:12:05.753Z,100811.94
2022-11-24T13:19:29.507Z,100814.41
2022-11-24T13:22:52.416Z,100813.91
2022-11-24T13:25:29.426Z,100817.53
2022-11-24T13:28:00.471Z,100815.09
2022-11-24T13:31:10.221Z,100822.22
2022-11-24T13:33:40.456Z,100830.91
2022-11-24T13:37:31.834Z,100830.91
2022-11-24T13:39:58.837Z,100826.63
2022-11-24T13:42:42.849Z,100840.34
2022-11-24T13:45:55.210Z,100846.44
2022-11-24T13:49:03.248Z,100847.47
2022-11-24T13:51:32.245Z,100844.06
2022-11-24T13:54:01.954Z,100847.53
2022-11-24T13:56:32.456Z,100864.00
2022-11-24T13:59:07.098Z,100866.78
2022-11-24T14:01:48.288Z,100854.88
2022-11-24T14:04:33.740Z,100856.69
2022-11-24T14:07:14.281Z,100862.75
2022-11-24T14:10:05.579Z,100858.50
2022-11-24T14:12:45.630Z,100864.00
2022-11-24T14:15:30.111Z,100875.41
2022-11-24T14:18:54.323Z,100873.00
2022-11-24T14:21:41.847Z,100892.84
2022-11-24T14:24:26.000Z,100895.53
2022-11-24T14:27:19.555Z,100903.28
2022-11-24T14:30:19.803Z,100916.34
2022-11-24T14:33:29.241Z,100895.78
2022-11-24T14:36:19.711Z,100907.94
2022-11-24T14:39:09.509Z,100910.66
2022-11-24T14:41:59.277Z,100915.88
2022-11-24T14:44:49.247Z,100913.41
2022-11-24T14:47:35.368Z,100919.47
2022-11-24T14:50:24.819Z,100921.38
2022-11-24T14:53:14.549Z,100929.19
2022-11-24T14:56:16.760Z,100925.00
2022-11-24T14:58:51.570Z,100926.72
2022-11-24T15:01:57.372Z,100930.34
2022-11-24T15:05:02.706Z,100933.88
2022-11-24T15:08:01.013Z,100929.63
2022-11-24T15:10:48.086Z,100935.03
2022-11-24T15:13:47.569Z,100938.50
2022-11-24T15:16:57.590Z,100929.91
2022-11-24T15:20:02.429Z,100937.75
2022-11-24T15:23:03.858Z,100926.75
2022-11-24T15:25:36.346Z,100930.22
2022-11-24T15:28:04.403Z,100946.59
2022-11-24T15:30:35.697Z,100944.84
2022-11-24T15:33:03.343Z,100953.38
2022-11-24T15:35:32.995Z,100968.81
2022-11-24T15:38:00.675Z,100965.41
2022-11-24T15:40:28.140Z,100971.41
2022-11-24T15:42:59.598Z,100968.81
2022-11-24T15:45:30.869Z,100961.00
2022-11-24T15:47:59.702Z,100957.59
2022-11-24T15:50:27.220Z,100962.88
2022-11-24T15:52:54.711Z,100971.59
2022-11-24T15:55:23.195Z,100970.75
2022-11-24T15:57:50.866Z,100967.28
2022-11-24T16:00:19.976Z,100968.09
2022-11-24T16:02:47.867Z,100970.63
2022-11-24T16:05:18.028Z,100978.41
2022-11-24T16:07:45.652Z,100974.13
2022-11-24T16:10:22.377Z,100980.25
2022-11-24T16:12:50.053Z,100970.91
2022-11-24T16:15:17.788Z,100976.09
2022-11-24T16:17:46.509Z,100981.25
2022-11-24T16:21:24.473Z,100978.84
2022-11-24T16:23:52.013Z,100985.66
2022-11-24T16:26:19.621Z,100982.19
2022-11-24T16:28:47.245Z,100998.47
2022-11-24T16:31:16.034Z,100993.25
2022-11-24T16:33:44.764Z,100984.56
2022-11-24T16:36:12.409Z,100988.00
2022-11-24T16:38:41.208Z,100981.94
2022-11-24T16:41:10.381Z,101002.59
2022-11-24T16:43:38.221Z,101005.13
2022-11-24T16:46:17.892Z,101012.06
2022-11-24T16:48:45.904Z,100996.56
2022-11-24T16:51:14.356Z,101007.00
2022-11-24T16:53:43.541Z,101007.13
2022-11-24T16:56:11.116Z,101003.63
2022-11-24T16:58:40.383Z,101009.66
2022-11-24T17:01:10.341Z,101012.22
2022-11-24T17:03:38.538Z,101014.88
2022-11-24T17:06:08.394Z,101006.34
2022-11-24T17:08:37.600Z,101014.09
2022-11-24T17:11:10.174Z,101010.63
2022-11-24T17:13:38.217Z,101002.06
2022-11-24T17:16:06.753Z,101000.41
2022-11-24T17:18:34.931Z,100999.59
2022-11-24T17:21:09.113Z,100997.00
2022-11-24T17:23:37.481Z,101002.16
2022-11-24T17:26:07.216Z,100997.88
2022-11-24T17:28:36.583Z,100995.22
2022-11-24T17:31:07.260Z,100999.59
2022-11-24T17:33:37.210Z,100993.75
2022-11-24T17:36:05.438Z,101005.84
2022-11-24T17:38:33.249Z,101015.34
2022-11-24T17:41:00.719Z,101020.56
2022-11-24T17:43:28.546Z,101017.13
2022-11-24T17:45:59.055Z,101031.75
2022-11-24T17:48:26.596Z,101022.19
2022-11-24T17:51:00.329Z,101026.47
2022-11-24T17:53:27.835Z,101040.22
2022-11-24T17:55:55.397Z,101047.03
2022-11-24T17:58:27.288Z,101044.44
2022-11-24T18:00:54.956Z,101040.94
2022-11-24T18:03:28.277Z,101042.66
2022-11-24T18:05:56.344Z,101030.66
2022-11-24T18:08:25.059Z,101034.22
2022-11-24T18:10:52.540Z,101035.16
2022-11-24T18:13:48.386Z,101041.19
2022-11-24T18:16:10.829Z,101043.78
2022-11-24T18:18:40.699Z,101046.38
2022-11-24T18:21:13.481Z,101043.78
2022-11-24T18:23:41.936Z,101037.84
2022-11-24T18:26:12.662Z,101032.78
2022-11-24T18:28:40.320Z,101038.88
2022-11-24T18:31:10.048Z,101039.75
2022-11-24T18:33:38.461Z,101039.81
2022-11-24T18:36:08.192Z,101034.66
2022-11-24T18:38:37.326Z,101044.09
2022-11-24T18:41:06.397Z,101050.16
2022-11-24T18:43:36.090Z,101052.63
2022-11-24T18:46:05.806Z,101050.09
2022-11-24T18:48:33.533Z,101045.81
2022-11-24T18:51:01.243Z,101057.84
2022-11-24T18:53:30.235Z,101060.44
2022-11-24T18:55:58.849Z,101052.69
2022-11-24T18:58:28.731Z,101056.13
2022-11-24T19:01:05.692Z,101059.56
2022-11-24T19:03:33.405Z,101066.47
2022-11-24T19:06:03.305Z,101071.59
2022-11-24T19:08:32.302Z,101069.78
2022-11-24T19:11:00.046Z,101069.72
2022-11-24T19:13:27.766Z,101074.00
2022-11-24T19:15:55.381Z,101069.69
2022-11-24T19:18:22.886Z,101067.94
2022-11-24T19:20:50.366Z,101064.50
2022-11-24T19:23:18.601Z,101056.81
2022-11-24T19:25:47.430Z,101063.69
2022-11-24T19:28:14.935Z,101071.47
2022-11-24T19:30:42.451Z,101069.72
2022-11-24T19:33:10.242Z,101077.50
2022-11-24T19:35:37.749Z,101069.72
2022-11-24T19:38:05.242Z,101069.78
2022-11-24T19:40:32.694Z,101073.25
2022-11-24T19:43:01.562Z,101070.69
2022-11-24T19:45:29.667Z,101080.22
2022-11-24T19:47:57.172Z,101073.41
2022-11-24T19:50:24.752Z,101079.50
2022-11-24T19:52:52.203Z,101087.31
2022-11-24T19:55:19.729Z,101088.16
2022-11-24T19:57:47.374Z,101095.06
2022-11-24T20:00:18.739Z,101085.66
2022-11-24T20:02:46.529Z,101084.00
2022-11-24T20:05:14.138Z,101081.53
2022-11-24T20:07:42.963Z,101103.06
2022-11-24T20:10:11.307Z,101112.53
2022-11-24T20:12:38.856Z,101103.03
2022-11-24T20:15:07.762Z,101112.53
2022-11-24T20:17:37.705Z,101117.69
2022-11-24T20:20:06.322Z,101113.34
2022-11-24T20:22:33.820Z,101117.66
2022-11-24T20:25:01.362Z,101114.28
2022-11-24T20:27:28.801Z,101106.56
2022-11-24T20:29:56.271Z,101104.94
2022-11-24T20:32:23.720Z,101107.50
2022-11-24T20:34:52.488Z,101108.44
2022-11-24T20:37:19.944Z,101116.19
2022-11-24T20:39:47.378Z,101126.53
2022-11-24T20:42:14.929Z,101117.94
2022-11-24T20:44:42.387Z,101123.94
2022-11-24T20:47:09.850Z,101123.13
2022-11-24T20:49:37.560Z,101130.13
2022-11-24T20:52:06.686Z,101135.25
2022-11-24T20:54:34.685Z,101131.03
2022-11-24T20:57:02.464Z,101131.94
2022-11-24T20:59:30.031Z,101125.91
2022-11-24T21:01:59.036Z,101131.97
2022-11-24T21:04:27.944Z,101132.03
2022-11-24T21:06:55.673Z,101131.25
2022-11-24T21:09:27.117Z,101119.25
2022-11-24T21:11:54.706Z,101124.34
2022-11-24T21:14:22.253Z,101121.75
2022-11-24T21:16:49.775Z,101127.81
2022-11-24T21:19:18.708Z,101136.41
2022-11-24T21:21:47.544Z,101126.09
2022-11-24T21:24:16.478Z,101143.31
2022-11-24T21:26:47.629Z,101138.13
2022-11-24T21:29:17.192Z,101135.59
2022-11-24T21:31:44.897Z,101137.41
2022-11-24T21:34:15.845Z,101134.03
2022-11-24T21:36:44.898Z,101147.81
2022-11-24T21:39:14.093Z,101146.22
2022-11-24T21:41:42.345Z,101162.53
2022-11-24T21:44:12.008Z,101158.25
2022-11-24T21:46:45.696Z,101154.78
2022-11-24T21:49:18.473Z,101160.00
2022-11-24T21:51:45.965Z,101157.41
2022-11-24T21:54:13.477Z,101157.53
2022-11-24T21:56:40.917Z,101161.81
2022-11-24T21:59:08.593Z,101160.09
2022-11-24T22:01:37.516Z,101172.22
2022-11-24T22:04:05.500Z,101170.56
2022-11-24T22:06:33.278Z,101170.63
2022-11-24T22:09:00.824Z,101167.22
2022-11-24T22:11:28.266Z,101172.47
2022-11-24T22:13:55.782Z,101168.25
2022-11-24T22:16:24.825Z,101170.78
2022-11-24T22:18:53.891Z,101169.03
2022-11-24T22:21:23.768Z,101167.34
2022-11-24T22:23:54.384Z,101165.63
2022-11-24T22:26:24.218Z,101164.84
2022-11-24T22:28:52.291Z,101175.25
2022-11-24T22:31:22.693Z,101176.97
2022-11-24T22:33:50.705Z,101176.16
2022-11-24T22:36:21.587Z,101176.09
2022-11-24T22:38:53.605Z,101182.94
2022-11-24T22:41:21.481Z,101169.09
2022-11-24T22:43:49.571Z,101180.25
2022-11-24T22:46:19.840Z,101185.38
2022-11-24T22:48:49.342Z,101185.38
2022-11-24T22:51:20.140Z,101179.34
2022-11-24T22:53:48.507Z,101189.63
2022-11-24T22:56:16.485Z,101182.69
2022-11-24T22:58:44.286Z,101183.53
2022-11-24T23:01:14.052Z,101183.53
2022-11-24T23:03:42.260Z,101189.63
2022-11-24T23:06:13.341Z,101187.88
2022-11-24T23:08:42.704Z,101186.97
2022-11-24T23:11:13.069Z,101185.28
2022-11-24T23:13:40.848Z,101195.56
2022-11-24T23:16:11.039Z,101193.81
2022-11-24T23:18:39.035Z,101195.53
2022-11-24T23:21:08.079Z,101193.78
2022-11-24T23:23:36.097Z,101193.72
2022-11-24T23:26:07.413Z,101188.56
2022-11-24T23:28:35.452Z,101188.59
2022-11-24T23:31:04.082Z,101187.72
2022-11-24T23:33:32.261Z,101176.56
2022-11-24T23:36:02.618Z,101189.47
2022-11-24T23:38:32.683Z,101189.47
2022-11-24T23:41:01.334Z,101177.44
2022-11-24T23:43:30.369Z,101191.19
2022-11-24T23:46:02.505Z,101192.00
2022-11-24T23:48:30.031Z,101181.69
2022-11-24T23:50:58.522Z,101189.31
2022-11-24T23:53:26.116Z,101193.59
2022-11-24T23:55:54.637Z,101202.06
2022-11-24T23:58:22.287Z,101206.31
